createdAt,value
2023-02-02T04:33:52.053Z,1.46
2023-02-02T04:34:52.039Z,1.78
2023-02-02T04:35:52.021Z,1.62
2023-02-02T04:36:52.018Z,1.43
2023-02-02T04:37:52.004Z,1.79
2023-02-02T04:38:52.024Z,1.87
2023-02-02T04:39:51.984Z,1.55
2023-02-02T04:40:51.994Z,1.90
2023-02-02T04:41:51.965Z,1.82
2023-02-02T04:42:51.958Z,1.75
2023-02-02T04:43:51.965Z,1.95
2023-02-02T04:44:51.940Z,1.96
2023-02-02T04:45:51.969Z,1.58
2023-02-02T04:46:51.926Z,1.63
2023-02-02T04:47:51.926Z,2.00
2023-02-02T04:48:51.901Z,1.32
2023-02-02T04:49:51.896Z,1.67
2023-02-02T04:50:51.884Z,1.52
2023-02-02T04:51:51.877Z,2.01
2023-02-02T04:52:51.874Z,1.69
2023-02-02T04:53:51.860Z,1.59
2023-02-02T04:54:51.879Z,1.75
2023-02-02T04:55:51.843Z,1.98
2023-02-02T04:56:51.834Z,1.58
2023-02-02T04:57:51.821Z,1.77
2023-02-02T04:58:51.812Z,1.61
2023-02-02T04:59:51.808Z,1.75
2023-02-02T05:00:51.803Z,1.63
2023-02-02T05:01:51.794Z,1.40
2023-02-02T05:02:51.789Z,1.82
2023-02-02T05:03:51.765Z,1.74
2023-02-02T05:04:51.759Z,1.75
2023-02-02T05:05:51.769Z,1.68
2023-02-02T05:06:51.744Z,1.30
2023-02-02T05:07:51.737Z,1.30
2023-02-02T05:08:51.726Z,1.53
2023-02-02T05:09:51.746Z,1.57
2023-02-02T05:10:51.730Z,1.77
2023-02-02T05:11:51.695Z,1.63
2023-02-02T05:12:51.688Z,1.47
2023-02-02T05:13:51.691Z,1.52
2023-02-02T05:14:51.668Z,1.59
2023-02-02T05:15:51.665Z,1.57
2023-02-02T05:16:51.720Z,1.83
2023-02-02T05:17:51.640Z,1.45
2023-02-02T05:18:51.632Z,1.34
2023-02-02T05:19:51.628Z,1.74
2023-02-02T05:20:51.614Z,1.55
2023-02-02T05:21:51.642Z,1.77
2023-02-02T05:22:51.604Z,1.58
2023-02-02T05:23:51.597Z,1.16
2023-02-02T05:24:51.584Z,1.71
2023-02-02T05:25:51.571Z,1.39
2023-02-02T05:26:51.611Z,1.85
2023-02-02T05:27:51.556Z,1.56
2023-02-02T05:28:51.549Z,1.53
2023-02-02T05:29:51.537Z,1.52
2023-02-02T05:30:51.643Z,1.83
2023-02-02T05:31:51.557Z,1.64
2023-02-02T05:32:51.509Z,1.26
2023-02-02T05:33:51.512Z,1.53
2023-02-02T05:34:51.495Z,1.44
2023-02-02T05:35:51.484Z,1.80
2023-02-02T05:36:51.489Z,1.36
2023-02-02T05:37:51.479Z,1.41
2023-02-02T05:38:51.463Z,1.69
2023-02-02T05:39:51.446Z,1.49
2023-02-02T05:40:51.438Z,1.62
2023-02-02T05:41:51.432Z,1.74
2023-02-02T05:42:51.449Z,1.55
2023-02-02T05:43:51.455Z,1.37
2023-02-02T05:44:51.405Z,1.56
2023-02-02T05:45:51.419Z,1.73
2023-02-02T05:46:51.381Z,1.68
2023-02-02T05:47:51.377Z,1.78
2023-02-02T05:48:51.368Z,1.61
2023-02-02T05:49:51.359Z,1.56
2023-02-02T05:50:51.354Z,1.27
2023-02-02T05:51:51.338Z,1.63
2023-02-02T05:52:51.344Z,1.75
2023-02-02T05:53:51.324Z,1.10
2023-02-02T05:54:51.311Z,1.63
2023-02-02T05:55:51.300Z,1.59
2023-02-02T05:56:51.297Z,1.47
2023-02-02T05:57:51.291Z,1.64
2023-02-02T05:58:51.301Z,1.59
2023-02-02T05:59:51.266Z,1.43
2023-02-02T06:00:51.265Z,1.55
2023-02-02T06:01:51.252Z,1.24
2023-02-02T06:02:51.297Z,1.95
2023-02-02T06:03:51.382Z,1.72
2023-02-02T06:04:51.220Z,1.63
2023-02-02T06:05:51.216Z,1.41
2023-02-02T06:06:51.211Z,1.44
2023-02-02T06:07:51.193Z,1.39
2023-02-02T06:08:51.195Z,1.41
2023-02-02T06:09:51.174Z,1.43
2023-02-02T06:10:51.171Z,1.29
2023-02-02T06:11:51.158Z,1.62
2023-02-02T06:12:51.196Z,1.24
2023-02-02T06:13:51.307Z,1.54
2023-02-02T06:14:51.167Z,1.64
2023-02-02T06:15:51.150Z,1.96
2023-02-02T06:16:51.113Z,1.77
2023-02-02T06:17:51.105Z,1.65
2023-02-02T06:18:51.097Z,1.34
2023-02-02T06:19:51.096Z,1.43
2023-02-02T06:20:51.082Z,1.38
2023-02-02T06:21:51.077Z,1.68
2023-02-02T06:22:51.303Z,2.22
2023-02-02T06:23:51.050Z,1.59
2023-02-02T06:24:51.044Z,1.67
2023-02-02T06:25:51.032Z,1.45
2023-02-02T06:26:51.103Z,1.35
2023-02-02T06:27:51.031Z,1.15
2023-02-02T06:28:51.018Z,1.44
2023-02-02T06:29:51.002Z,1.16
2023-02-02T06:30:51.099Z,1.49
2023-02-02T06:31:51.084Z,1.39
2023-02-02T06:32:51.307Z,1.62
2023-02-02T06:33:50.968Z,1.37
2023-02-02T06:34:50.957Z,1.22
2023-02-02T06:35:50.954Z,1.56
2023-02-02T06:36:51.325Z,1.75
2023-02-02T06:37:50.923Z,1.47
2023-02-02T06:38:51.316Z,1.23
2023-02-02T06:39:50.911Z,1.60
2023-02-02T06:40:50.903Z,1.56
2023-02-02T06:41:50.897Z,1.30
2023-02-02T06:42:50.892Z,1.43
2023-02-02T06:43:51.316Z,1.46
2023-02-02T06:44:50.870Z,1.66
2023-02-02T06:45:50.866Z,1.61
2023-02-02T06:46:50.872Z,1.52
2023-02-02T06:47:50.844Z,1.41
2023-02-02T06:48:51.347Z,1.57
2023-02-02T06:49:50.855Z,1.37
2023-02-02T06:50:50.821Z,1.24
2023-02-02T06:51:50.820Z,1.46
2023-02-02T06:52:51.804Z,1.63
2023-02-02T06:54:50.817Z,1.64
2023-02-02T06:55:50.798Z,1.49
2023-02-02T06:56:51.771Z,1.43
2023-02-02T06:57:50.813Z,1.51
2023-02-02T06:58:50.747Z,1.31
2023-02-02T06:59:50.731Z,1.75
2023-02-02T07:00:50.752Z,1.86
2023-02-02T07:01:50.815Z,2.09
2023-02-02T07:03:50.699Z,1.53
2023-02-02T07:04:50.706Z,1.64
2023-02-02T07:07:50.828Z,1.81
2023-02-02T07:09:58.182Z,1.25
2023-02-02T07:12:50.821Z,1.73
2023-02-02T07:24:50.827Z,1.66
2023-02-02T07:25:50.840Z,1.73
2023-02-02T07:28:50.825Z,1.45
2023-02-02T07:43:50.845Z,1.55
2023-02-02T07:44:50.762Z,1.71
2023-02-02T07:57:51.223Z,1.94
2023-02-02T08:34:49.916Z,2.11
2023-02-02T09:54:49.215Z,3.75
2023-02-02T10:37:48.891Z,3.29
2023-02-02T10:40:52.075Z,3.09
2023-02-02T10:49:51.771Z,3.09
2023-02-02T12:13:48.267Z,2.47
2023-02-02T12:17:47.970Z,3.17
2023-02-02T13:58:47.011Z,3.63
2023-02-02T13:59:46.967Z,3.32
2023-02-02T14:00:46.956Z,3.52
2023-02-02T14:02:47.104Z,3.92
2023-02-02T14:03:46.947Z,3.48
2023-02-02T14:04:46.929Z,4.31
2023-02-02T14:05:46.927Z,3.66
2023-02-02T14:07:46.924Z,3.66
2023-02-02T14:08:46.907Z,3.24
2023-02-02T14:09:46.966Z,4.07
2023-02-02T14:10:46.905Z,4.06
2023-02-02T14:12:46.889Z,3.43
2023-02-02T14:13:47.029Z,3.32
2023-02-02T14:14:46.851Z,3.55
2023-02-02T14:15:46.892Z,3.80
2023-02-02T14:16:46.847Z,4.00
2023-02-02T14:17:46.846Z,4.10
2023-02-02T14:18:46.834Z,4.11
2023-02-02T14:19:46.830Z,3.95
2023-02-02T14:20:46.794Z,3.78
2023-02-02T14:21:47.767Z,3.95
2023-02-02T14:22:47.248Z,3.52
2023-02-02T14:23:47.095Z,3.73
2023-02-02T14:24:46.778Z,3.72
2023-02-02T14:25:46.759Z,3.69
2023-02-02T14:26:46.867Z,3.89
2023-02-02T14:27:46.751Z,3.80
2023-02-02T14:28:46.735Z,3.67
2023-02-02T14:29:47.240Z,3.95
2023-02-02T14:30:46.812Z,3.36
2023-02-02T14:31:46.723Z,4.04
2023-02-02T14:32:46.721Z,4.03
2023-02-02T14:33:46.663Z,3.25
2023-02-02T14:34:46.669Z,3.66
2023-02-02T14:36:47.682Z,3.61
2023-02-02T14:38:46.646Z,3.49
2023-02-02T14:40:46.642Z,3.80
2023-02-02T14:41:46.632Z,3.44
2023-02-02T14:43:46.577Z,3.73
2023-02-02T14:45:46.592Z,3.70
2023-02-02T14:46:46.554Z,4.02
2023-02-02T14:47:46.543Z,3.80
2023-02-02T14:48:46.564Z,4.03
2023-02-02T14:49:46.519Z,3.82
2023-02-02T14:50:46.521Z,3.81
2023-02-02T14:51:46.551Z,3.10
2023-02-02T14:52:46.981Z,3.55
2023-02-02T14:53:46.487Z,3.90
2023-02-02T14:54:46.479Z,3.74
2023-02-02T14:55:46.480Z,3.50
2023-02-02T14:56:46.457Z,3.87
2023-02-02T14:57:46.451Z,3.45
2023-02-02T14:58:46.438Z,3.97
2023-02-02T14:59:46.441Z,3.55
2023-02-02T15:00:46.436Z,3.61
2023-02-02T15:01:46.578Z,3.48
2023-02-02T15:02:46.450Z,3.72
2023-02-02T15:03:46.401Z,3.56
2023-02-02T15:04:46.485Z,3.66
2023-02-02T15:05:46.523Z,3.45
2023-02-02T15:06:46.394Z,3.19
2023-02-02T15:07:46.370Z,3.60
2023-02-02T15:08:46.494Z,3.47
2023-02-02T15:09:46.355Z,3.60
2023-02-02T15:10:46.338Z,3.88
2023-02-02T15:11:46.365Z,3.52
2023-02-02T15:12:46.327Z,3.46
2023-02-02T15:13:46.339Z,4.22
2023-02-02T15:14:46.295Z,3.49
2023-02-02T15:15:46.295Z,3.28
2023-02-02T15:16:46.301Z,3.10
2023-02-02T15:17:46.299Z,3.58
2023-02-02T15:18:46.279Z,3.68
2023-02-02T15:19:46.253Z,3.52
2023-02-02T15:20:46.243Z,3.45
2023-02-02T15:21:46.331Z,3.63
2023-02-02T15:22:46.235Z,4.03
2023-02-02T15:23:46.229Z,3.06
2023-02-02T15:24:46.216Z,3.64
2023-02-02T15:25:46.241Z,3.52
2023-02-02T15:26:46.232Z,3.11
2023-02-02T15:27:56.304Z,4.07
2023-02-02T15:28:46.190Z,3.34
2023-02-02T15:29:46.166Z,3.48
2023-02-02T15:30:46.199Z,3.15
2023-02-02T15:31:46.200Z,3.25
2023-02-02T15:32:46.133Z,3.29
2023-02-02T15:33:46.152Z,3.44
2023-02-02T15:34:46.500Z,3.28
2023-02-02T15:35:46.103Z,3.81
2023-02-02T15:36:46.118Z,3.44
2023-02-02T15:37:46.103Z,3.73
2023-02-02T15:38:46.085Z,3.75
2023-02-02T15:39:46.496Z,3.26
2023-02-02T15:40:46.071Z,3.49
2023-02-02T15:41:46.055Z,3.37
2023-02-02T15:42:46.046Z,2.89
2023-02-02T15:43:46.038Z,3.12
2023-02-02T15:44:46.046Z,3.22
2023-02-02T15:45:46.028Z,3.32
2023-02-02T15:46:46.045Z,2.64
2023-02-02T15:47:46.498Z,3.69
2023-02-02T15:48:45.987Z,3.27
2023-02-02T15:49:46.007Z,3.32
2023-02-02T15:50:45.975Z,3.33
2023-02-02T15:51:46.004Z,3.43
2023-02-02T15:52:46.500Z,3.25
2023-02-02T15:53:45.951Z,3.27
2023-02-02T15:54:45.939Z,2.75
2023-02-02T15:55:45.929Z,2.59
2023-02-02T15:56:45.916Z,3.58
2023-02-02T15:57:45.914Z,3.01
2023-02-02T15:58:45.905Z,3.06
2023-02-02T15:59:45.900Z,3.47
2023-02-02T16:00:45.909Z,3.72
2023-02-02T16:01:45.909Z,3.20
2023-02-02T16:02:45.865Z,3.35
2023-02-02T16:03:45.860Z,3.21
2023-02-02T16:04:45.850Z,3.41
2023-02-02T16:05:45.983Z,3.08
2023-02-02T16:06:45.855Z,3.66
2023-02-02T16:07:53.180Z,3.31
2023-02-02T16:08:45.817Z,3.12
2023-02-02T16:09:45.802Z,3.37
2023-02-02T16:10:46.801Z,2.89
2023-02-02T16:11:45.797Z,3.35
2023-02-02T16:12:45.806Z,3.68
2023-02-02T16:13:45.775Z,2.99
2023-02-02T20:00:43.871Z,2.54
2023-02-02T20:01:43.747Z,2.79
2023-02-02T20:02:43.828Z,2.56
2023-02-02T20:03:43.730Z,2.55
2023-02-02T20:04:43.725Z,2.89
2023-02-02T20:05:43.773Z,2.75
2023-02-02T20:06:58.016Z,2.16
2023-02-02T20:07:43.706Z,2.72
2023-02-02T20:08:43.691Z,2.33
2023-02-02T20:09:43.681Z,2.20
2023-02-02T20:10:43.665Z,2.31
2023-02-02T20:11:43.657Z,3.00
2023-02-02T20:12:43.649Z,2.58
2023-02-02T20:13:43.635Z,2.65
2023-02-02T20:14:43.642Z,2.81
2023-02-02T20:15:43.624Z,2.72
2023-02-02T20:16:43.661Z,2.72
2023-02-02T20:17:43.637Z,2.60
2023-02-02T20:18:43.601Z,2.32
2023-02-02T20:19:43.596Z,2.08
2023-02-02T20:20:43.584Z,2.52
2023-02-02T20:21:43.592Z,2.55
2023-02-02T20:22:43.562Z,2.37
2023-02-02T20:23:43.562Z,2.47
2023-02-02T20:24:43.544Z,2.69
2023-02-02T20:25:43.540Z,2.66
2023-02-02T20:26:43.568Z,2.55
2023-02-02T20:27:43.513Z,2.58
2023-02-02T20:28:43.510Z,2.36
2023-02-02T20:29:43.516Z,2.75
2023-02-02T20:30:43.535Z,3.09
2023-02-02T20:31:43.570Z,2.43
2023-02-02T20:32:43.472Z,2.97
2023-02-02T20:33:43.473Z,2.15
2023-02-02T20:34:43.459Z,2.18
2023-02-02T20:35:43.459Z,2.57
2023-02-02T20:36:43.436Z,2.80
2023-02-02T20:37:43.451Z,2.41
2023-02-02T20:38:43.423Z,2.36
2023-02-02T20:39:43.419Z,2.69
2023-02-02T20:40:43.403Z,2.25
2023-02-02T20:41:43.394Z,2.52
2023-02-02T20:42:43.384Z,2.37
2023-02-02T20:43:43.372Z,2.21
2023-02-02T20:44:43.371Z,2.54
2023-02-02T20:45:43.450Z,2.10
2023-02-02T20:46:43.348Z,2.56
2023-02-02T20:47:43.351Z,2.74
2023-02-02T20:48:43.332Z,2.39
2023-02-02T20:49:43.340Z,2.31
2023-02-02T20:50:43.324Z,2.30
2023-02-02T20:51:43.306Z,2.68
2023-02-02T20:52:43.295Z,2.25
2023-02-02T20:53:43.312Z,2.25
2023-02-02T20:54:43.281Z,2.77
2023-02-02T20:55:43.272Z,2.62
2023-02-02T20:56:43.262Z,2.56
2023-02-02T20:57:43.248Z,2.68
2023-02-02T20:58:43.247Z,2.45
2023-02-02T20:59:43.233Z,2.57
2023-02-02T21:00:43.324Z,2.30
2023-02-02T21:01:43.219Z,2.38
2023-02-02T21:02:43.305Z,2.89
2023-02-02T21:03:43.197Z,2.40
2023-02-02T21:04:43.189Z,2.64
2023-02-02T21:05:43.182Z,2.21
2023-02-02T21:06:43.175Z,2.65
2023-02-02T21:07:43.163Z,2.30
2023-02-02T21:08:43.158Z,2.40
2023-02-02T21:09:43.171Z,2.42
2023-02-02T21:10:43.146Z,2.57
2023-02-02T21:11:43.126Z,1.96
2023-02-02T21:12:43.120Z,2.74
2023-02-02T21:13:43.112Z,2.42
2023-02-02T21:14:43.104Z,2.45
2023-02-02T21:15:43.095Z,2.69
2023-02-02T21:16:43.140Z,2.37
2023-02-02T21:17:43.078Z,2.36
2023-02-02T21:18:43.066Z,2.68
2023-02-02T21:19:43.069Z,3.10
2023-02-02T21:20:43.052Z,2.76
2023-02-02T21:21:43.078Z,2.49
2023-02-02T21:22:43.030Z,2.34
2023-02-02T21:23:43.039Z,2.57
2023-02-02T21:24:43.039Z,2.55
2023-02-02T21:25:43.026Z,2.70
2023-02-02T21:26:43.001Z,2.99
2023-02-02T21:27:43.014Z,2.72
2023-02-02T21:28:42.983Z,2.29
2023-02-02T21:29:42.972Z,2.22
2023-02-02T21:30:43.166Z,2.63
2023-02-02T21:31:43.059Z,2.66
2023-02-02T21:32:42.945Z,2.26
2023-02-02T21:33:42.932Z,2.28
2023-02-02T21:34:42.928Z,2.18
2023-02-02T21:35:42.910Z,2.42
2023-02-02T21:36:42.904Z,1.77
2023-02-02T21:37:42.908Z,2.58
2023-02-02T21:38:42.897Z,2.33
2023-02-02T21:39:42.878Z,2.76
2023-02-02T21:40:42.883Z,2.59
2023-02-02T21:41:42.890Z,2.76
2023-02-02T21:42:42.853Z,2.83
2023-02-02T21:43:42.863Z,2.45
2023-02-02T21:44:42.835Z,2.12
2023-02-02T21:45:42.923Z,2.23
2023-02-02T21:46:42.820Z,2.11
2023-02-02T21:47:42.816Z,2.23
2023-02-02T21:48:42.816Z,2.42
2023-02-02T21:49:42.801Z,2.50
2023-02-02T21:50:42.785Z,2.48
2023-02-02T21:51:42.781Z,2.43
2023-02-02T21:52:42.770Z,2.33
2023-02-02T21:53:42.757Z,2.31
2023-02-02T21:54:42.765Z,2.41
2023-02-02T21:55:42.740Z,2.44
2023-02-02T21:56:42.725Z,2.60
2023-02-02T21:57:42.753Z,2.00
2023-02-02T21:58:42.712Z,2.14
2023-02-02T21:59:42.703Z,2.12
2023-02-02T22:00:42.698Z,2.06
2023-02-02T22:01:42.717Z,2.15
2023-02-02T22:02:45.015Z,2.05
2023-02-02T22:03:42.665Z,2.42
2023-02-02T22:04:42.662Z,2.59
2023-02-02T22:05:42.653Z,2.57
2023-02-02T22:06:42.640Z,2.40
2023-02-02T22:07:42.632Z,2.31
2023-02-02T22:08:42.628Z,2.11
2023-02-02T22:09:42.632Z,2.75
2023-02-02T22:10:42.610Z,2.42
2023-02-02T22:11:42.596Z,2.52
2023-02-02T22:12:42.587Z,2.41
2023-02-02T22:13:42.601Z,2.17
2023-02-02T22:14:42.588Z,2.24
2023-02-02T22:15:42.584Z,2.10
2023-02-02T22:16:42.551Z,2.75
2023-02-02T22:17:42.543Z,2.09
2023-02-02T22:18:42.541Z,2.07
2023-02-02T22:19:42.526Z,2.41
2023-02-02T22:20:42.518Z,2.07
2023-02-02T22:21:42.509Z,2.35
2023-02-02T22:22:42.493Z,2.67
2023-02-02T22:23:42.491Z,2.31
2023-02-02T22:24:42.480Z,2.49
2023-02-02T22:25:42.473Z,2.12
2023-02-02T22:26:42.472Z,2.12
2023-02-02T22:27:42.564Z,1.88
2023-02-02T22:28:42.448Z,2.33
2023-02-02T22:29:42.459Z,2.12
2023-02-02T22:30:42.550Z,2.04
2023-02-02T22:31:42.513Z,2.08
2023-02-02T22:32:42.417Z,2.37
2023-02-02T22:33:42.400Z,2.17
2023-02-02T22:34:42.396Z,2.45
2023-02-02T22:35:42.406Z,2.49
2023-02-02T22:36:42.374Z,2.03
2023-02-02T22:37:42.375Z,2.08
2023-02-02T22:38:42.356Z,2.02
2023-02-02T22:39:42.348Z,1.81
2023-02-02T22:40:42.342Z,2.11
2023-02-02T22:41:42.339Z,2.32
2023-02-02T22:42:42.329Z,2.62
2023-02-02T22:43:42.314Z,2.22
2023-02-02T22:44:42.304Z,1.86
2023-02-02T22:45:42.320Z,2.34
2023-02-02T22:46:42.324Z,1.99
2023-02-02T22:47:42.282Z,2.10
2023-02-02T22:48:42.269Z,2.00
2023-02-02T22:49:42.262Z,1.90
2023-02-02T22:50:42.262Z,2.23
2023-02-02T22:51:42.242Z,2.39
2023-02-02T22:52:42.235Z,2.18
2023-02-02T22:53:42.235Z,2.09
2023-02-02T22:54:42.221Z,2.11
2023-02-02T22:55:42.264Z,2.46
2023-02-02T22:56:42.209Z,2.58
2023-02-02T22:57:42.196Z,2.35
2023-02-02T22:58:42.186Z,2.35
2023-02-02T22:59:42.171Z,2.02
2023-02-02T23:00:42.161Z,2.65
2023-02-02T23:01:42.181Z,2.19
2023-02-02T23:02:42.269Z,1.92
2023-02-02T23:03:42.205Z,2.20
2023-02-02T23:04:42.134Z,2.16
2023-02-02T23:05:42.118Z,1.98
2023-02-02T23:06:42.120Z,2.12
2023-02-02T23:07:42.098Z,2.37
2023-02-02T23:08:42.107Z,1.83
2023-02-02T23:09:42.087Z,2.30
2023-02-02T23:10:42.077Z,2.10
2023-02-02T23:11:42.074Z,2.38
2023-02-02T23:12:42.054Z,2.20
2023-02-02T23:13:42.049Z,2.12
2023-02-02T23:14:42.040Z,2.38
2023-02-02T23:15:42.063Z,2.21
2023-02-02T23:16:42.027Z,2.13
2023-02-02T23:17:42.054Z,2.56
2023-02-02T23:18:42.015Z,2.03
2023-02-02T23:19:41.993Z,2.41
2023-02-02T23:20:41.985Z,2.13
2023-02-02T23:21:41.987Z,2.07
2023-02-02T23:22:41.981Z,2.38
2023-02-02T23:23:41.968Z,1.42
2023-02-02T23:24:41.963Z,2.02
2023-02-02T23:25:41.963Z,2.00
2023-02-02T23:26:41.945Z,2.36
2023-02-02T23:27:42.029Z,2.12
2023-02-02T23:28:41.938Z,1.87
2023-02-02T23:29:41.965Z,2.44
2023-02-02T23:30:41.919Z,2.25
2023-02-02T23:31:41.978Z,2.51
2023-02-02T23:32:41.898Z,2.30
2023-02-02T23:33:41.898Z,1.64
2023-02-02T23:34:41.865Z,2.37
2023-02-02T23:35:41.853Z,2.49
2023-02-02T23:36:41.854Z,2.01
2023-02-02T23:37:41.842Z,2.03
2023-02-02T23:38:41.832Z,2.07
2023-02-02T23:39:41.819Z,1.96
2023-02-02T23:40:41.816Z,2.15
2023-02-02T23:41:41.821Z,2.05
2023-02-02T23:42:41.803Z,1.96
2023-02-02T23:43:41.785Z,1.92
2023-02-02T23:44:41.780Z,1.90
2023-02-02T23:45:41.778Z,1.60
2023-02-02T23:46:41.854Z,1.95
2023-02-02T23:47:41.752Z,2.55
2023-02-02T23:48:41.746Z,2.05
2023-02-02T23:49:41.751Z,1.79
2023-02-02T23:50:41.723Z,1.93
2023-02-02T23:51:41.716Z,2.23
2023-02-02T23:52:41.711Z,2.49
2023-02-02T23:53:41.695Z,1.96
2023-02-02T23:54:41.696Z,1.97
2023-02-02T23:55:41.677Z,2.23
2023-02-02T23:56:41.664Z,2.35
2023-02-02T23:57:41.662Z,1.82
2023-02-02T23:58:41.654Z,1.73
2023-02-02T23:59:41.653Z,1.86
